createdAt,value
2018-01-17T00:01:19.656Z,1.90
2018-01-17T00:03:47.175Z,1.87
2018-01-17T00:06:14.677Z,2.30
2018-01-17T00:08:42.191Z,2.13
2018-01-17T00:11:09.709Z,2.87
2018-01-17T00:13:37.231Z,2.47
2018-01-17T00:16:05.503Z,2.40
2018-01-17T00:18:33.783Z,2.70
2018-01-17T00:21:02.065Z,2.40
2018-01-17T00:23:29.589Z,2.40
2018-01-17T00:25:57.086Z,2.87
2018-01-17T00:28:24.747Z,1.80
2018-01-17T00:30:53.019Z,2.27
2018-01-17T00:33:21.304Z,2.30
2018-01-17T00:35:48.822Z,2.20
2018-01-17T00:38:16.341Z,2.60
2018-01-17T00:40:43.845Z,1.83
2018-01-17T00:43:11.368Z,2.20
2018-01-17T00:45:38.872Z,1.80
2018-01-17T00:48:06.388Z,2.43
2018-01-17T00:50:33.887Z,1.87
2018-01-17T00:53:01.544Z,2.67
2018-01-17T00:55:29.042Z,2.53
2018-01-17T00:57:57.316Z,1.57
2018-01-17T01:00:25.599Z,2.10
2018-01-17T01:02:53.870Z,2.23
2018-01-17T01:05:22.165Z,2.40
2018-01-17T01:07:49.675Z,2.57
2018-01-17T01:10:17.193Z,2.43
2018-01-17T01:12:44.699Z,2.20
2018-01-17T01:15:12.229Z,1.97
2018-01-17T01:17:39.732Z,2.70
2018-01-17T01:20:08.019Z,2.30
2018-01-17T01:22:36.294Z,2.63
2018-01-17T01:25:04.574Z,1.87
2018-01-17T01:27:32.883Z,2.00
2018-01-17T01:30:00.398Z,2.73
2018-01-17T01:32:27.919Z,2.73
2018-01-17T01:34:55.451Z,2.63
2018-01-17T01:37:22.958Z,3.30
2018-01-17T01:39:50.463Z,2.97
2018-01-17T01:42:17.988Z,3.50
2018-01-17T01:44:45.506Z,2.77
2018-01-17T01:47:13.027Z,3.77
2018-01-17T01:49:41.299Z,4.30
2018-01-17T01:52:09.587Z,3.27
2018-01-17T01:54:37.862Z,3.73
2018-01-17T01:57:06.143Z,4.60
2018-01-17T01:59:34.424Z,4.47
2018-01-17T02:02:02.710Z,4.63
2018-01-17T02:04:30.980Z,4.67
2018-01-17T02:06:58.512Z,4.60
2018-01-17T02:09:26.019Z,5.87
2018-01-17T02:11:53.535Z,5.50
2018-01-17T02:14:21.037Z,6.07
2018-01-17T02:16:48.563Z,4.83
2018-01-17T02:19:16.839Z,5.50
2018-01-17T02:21:45.130Z,5.87
2018-01-17T02:24:13.403Z,5.90
2018-01-17T02:26:41.733Z,5.63
2018-01-17T02:29:09.220Z,6.30
2018-01-17T02:31:36.723Z,7.00
2018-01-17T02:34:04.243Z,5.10
2018-01-17T02:36:31.739Z,6.30
2018-01-17T02:38:59.259Z,6.30
2018-01-17T02:41:26.771Z,6.67
2018-01-17T02:43:54.308Z,7.00
2018-01-17T02:46:22.588Z,6.47
2018-01-17T02:48:50.113Z,6.27
2018-01-17T02:51:17.628Z,6.07
2018-01-17T02:53:45.157Z,6.73
2018-01-17T02:56:13.431Z,6.70
2018-01-17T02:58:41.711Z,6.10
2018-01-17T03:01:09.989Z,6.40
2018-01-17T03:03:38.275Z,6.20
2018-01-17T03:06:05.774Z,6.93
2018-01-17T03:08:33.283Z,6.00
2018-01-17T03:11:01.569Z,6.07
2018-01-17T03:13:29.844Z,6.07
2018-01-17T03:15:58.131Z,6.63
2018-01-17T03:18:25.639Z,6.87
2018-01-17T03:20:53.162Z,6.33
2018-01-17T03:23:20.673Z,6.97
2018-01-17T03:25:48.194Z,6.90
2018-01-17T03:28:15.695Z,6.30
2018-01-17T03:30:43.215Z,7.47
2018-01-17T03:33:10.711Z,7.47
2018-01-17T03:35:38.230Z,7.70
2018-01-17T03:38:05.736Z,6.30
2018-01-17T03:40:33.263Z,7.20
2018-01-17T03:43:00.776Z,7.47
2018-01-17T03:45:29.053Z,7.87
2018-01-17T03:47:57.344Z,6.67
2018-01-17T03:50:24.864Z,7.10
2018-01-17T03:52:52.387Z,7.63
2018-01-17T03:55:19.885Z,7.17
2018-01-17T03:57:47.406Z,7.80
2018-01-17T04:00:14.912Z,7.97
2018-01-17T04:02:42.430Z,8.30
2018-01-17T04:05:09.930Z,8.27
2018-01-17T04:07:37.450Z,8.50
2018-01-17T04:10:04.955Z,8.20
2018-01-17T04:12:33.239Z,8.23
2018-01-17T04:15:01.513Z,7.67
2018-01-17T04:17:29.798Z,6.70
2018-01-17T04:19:58.089Z,7.97
2018-01-17T04:22:25.610Z,7.67
2018-01-17T04:24:53.126Z,7.53
2018-01-17T04:27:20.627Z,7.27
2018-01-17T04:29:48.141Z,6.87
2018-01-17T04:32:15.648Z,6.93
2018-01-17T04:34:43.164Z,6.50
2018-01-17T04:37:10.663Z,7.57
2018-01-17T04:39:38.227Z,7.10
2018-01-17T04:42:05.726Z,6.50
2018-01-17T04:44:33.247Z,6.27
2018-01-17T04:47:00.762Z,6.80
2018-01-17T04:49:28.293Z,6.50
2018-01-17T04:51:56.563Z,5.70
2018-01-17T04:54:24.845Z,6.03
2018-01-17T04:56:53.120Z,5.97
2018-01-17T04:59:21.407Z,5.93
2018-01-17T05:01:49.675Z,6.13
2018-01-17T05:04:17.938Z,5.17
2018-01-17T05:06:45.461Z,5.93
2018-01-17T05:09:12.970Z,5.87
2018-01-17T05:11:41.256Z,5.30
2018-01-17T05:14:09.529Z,5.80
2018-01-17T05:16:37.813Z,5.57
2018-01-17T05:19:06.088Z,5.30
2018-01-17T05:21:34.375Z,5.37
2018-01-17T05:24:01.874Z,5.00
2018-01-17T05:26:29.395Z,4.87
2018-01-17T05:28:56.903Z,4.90
2018-01-17T05:31:24.471Z,5.33
2018-01-17T05:33:51.966Z,5.27
2018-01-17T05:36:20.251Z,4.73
2018-01-17T05:38:47.746Z,5.33
2018-01-17T05:41:15.272Z,4.80
2018-01-17T05:43:42.771Z,4.57
2018-01-17T05:46:10.290Z,5.80
2018-01-17T05:48:37.801Z,5.00
2018-01-17T05:51:05.306Z,4.90
2018-01-17T05:53:32.829Z,4.77
2018-01-17T05:56:00.344Z,4.53
2018-01-17T05:58:27.877Z,4.83
2018-01-17T06:00:56.160Z,5.17
2018-01-17T06:03:23.679Z,5.27
2018-01-17T06:05:51.195Z,4.73
2018-01-17T06:08:18.711Z,4.60
2018-01-17T06:10:46.979Z,4.07
2018-01-17T06:13:14.500Z,4.70
2018-01-17T06:15:42.246Z,4.80
2018-01-17T06:18:09.762Z,4.00
2018-01-17T06:20:37.259Z,5.00
2018-01-17T06:23:04.790Z,4.73
2018-01-17T06:25:32.311Z,4.50
2018-01-17T06:27:59.831Z,4.27
2018-01-17T06:30:28.103Z,4.93
2018-01-17T06:32:56.376Z,4.90
2018-01-17T06:35:24.674Z,3.53
2018-01-17T06:37:52.943Z,3.67
2018-01-17T06:40:21.219Z,4.63
2018-01-17T06:42:49.520Z,4.50
2018-01-17T06:45:17.049Z,4.30
2018-01-17T06:47:45.315Z,3.80
2018-01-17T06:50:12.832Z,3.57
2018-01-17T06:52:40.343Z,3.83
2018-01-17T06:55:08.638Z,4.30
2018-01-17T06:57:37.115Z,4.60
2018-01-17T07:00:05.400Z,4.40
2018-01-17T07:02:32.895Z,4.70
2018-01-17T07:05:00.403Z,4.27
2018-01-17T07:07:28.676Z,4.13
2018-01-17T07:09:56.962Z,3.77
2018-01-17T07:12:25.238Z,5.03
2018-01-17T07:14:53.518Z,3.43
2018-01-17T07:17:21.786Z,4.30
2018-01-17T07:19:50.062Z,3.93
2018-01-17T07:22:18.348Z,4.17
2018-01-17T07:24:46.628Z,4.33
2018-01-17T07:27:14.911Z,4.10
2018-01-17T07:29:43.178Z,4.20
2018-01-17T07:32:11.459Z,4.50
2018-01-17T07:34:39.718Z,3.60
2018-01-17T07:37:07.244Z,4.20
2018-01-17T07:39:34.755Z,3.80
2018-01-17T07:42:03.044Z,4.30
2018-01-17T07:44:31.315Z,3.50
2018-01-17T07:46:59.594Z,4.70
2018-01-17T07:49:27.869Z,3.80
2018-01-17T07:51:56.154Z,3.13
2018-01-17T07:54:24.432Z,3.53
2018-01-17T07:56:51.958Z,4.93
2018-01-17T07:59:19.459Z,4.73
2018-01-17T08:01:46.986Z,5.30
2018-01-17T08:04:14.495Z,5.83
2018-01-17T08:06:42.019Z,5.80
2018-01-17T08:09:10.305Z,5.00
2018-01-17T08:11:38.635Z,5.40
2018-01-17T08:14:06.149Z,4.53
2018-01-17T08:16:33.670Z,5.60
2018-01-17T08:19:01.175Z,4.60
2018-01-17T08:21:28.679Z,5.50
2018-01-17T08:23:56.207Z,4.50
2018-01-17T08:26:23.711Z,4.80
2018-01-17T08:28:51.246Z,4.60
2018-01-17T08:31:18.747Z,4.37
2018-01-17T08:33:47.057Z,4.40
2018-01-17T08:36:14.563Z,4.27
2018-01-17T08:38:42.093Z,4.70
2018-01-17T08:41:09.598Z,4.80
2018-01-17T08:43:37.886Z,5.07
2018-01-17T08:46:06.148Z,4.23
2018-01-17T08:48:33.684Z,4.23
2018-01-17T08:51:01.196Z,4.60
2018-01-17T08:53:28.715Z,4.30
2018-01-17T08:55:56.215Z,4.00
2018-01-17T08:58:23.736Z,4.43
2018-01-17T09:00:51.252Z,4.60
2018-01-17T09:03:18.768Z,4.03
2018-01-17T09:05:46.287Z,3.90
2018-01-17T09:08:13.796Z,4.20
2018-01-17T09:10:42.092Z,4.00
2018-01-17T09:13:09.591Z,4.23
2018-01-17T09:15:37.110Z,4.20
2018-01-17T09:18:04.622Z,3.90
2018-01-17T09:20:32.153Z,3.97
2018-01-17T09:22:59.656Z,4.37
2018-01-17T09:25:27.175Z,3.57
2018-01-17T09:27:54.672Z,4.00
2018-01-17T09:30:22.188Z,3.83
2018-01-17T09:32:49.691Z,3.90
2018-01-17T09:35:17.214Z,3.37
2018-01-17T09:37:44.719Z,4.17
2018-01-17T09:40:13.020Z,3.30
2018-01-17T09:42:41.296Z,3.27
2018-01-17T09:45:09.578Z,3.80
2018-01-17T09:47:37.092Z,3.80
2018-01-17T09:50:04.595Z,2.97
2018-01-17T09:52:32.874Z,3.73
2018-01-17T09:55:01.153Z,3.43
2018-01-17T09:57:28.676Z,3.50
2018-01-17T09:59:56.186Z,3.57
2018-01-17T10:02:23.712Z,3.23
2018-01-17T10:04:51.977Z,3.50
2018-01-17T10:07:19.517Z,2.93
2018-01-17T10:09:47.019Z,3.67
2018-01-17T10:12:15.294Z,3.23
2018-01-17T10:14:43.565Z,3.17
2018-01-17T10:17:11.865Z,3.07
2018-01-17T10:19:39.366Z,3.03
2018-01-17T10:22:06.883Z,3.40
2018-01-17T10:24:34.385Z,2.77
2018-01-17T10:27:01.906Z,3.53
2018-01-17T10:29:29.403Z,3.13
2018-01-17T10:31:56.915Z,3.73
2018-01-17T10:34:25.184Z,3.40
2018-01-17T10:36:53.479Z,3.00
2018-01-17T10:39:20.977Z,2.53
2018-01-17T10:41:48.492Z,3.23
2018-01-17T10:44:15.991Z,2.80
2018-01-17T10:46:43.520Z,3.30
2018-01-17T10:49:11.039Z,3.20
2018-01-17T10:51:38.540Z,3.83
2018-01-17T10:54:06.054Z,2.67
2018-01-17T10:56:33.558Z,3.20
2018-01-17T10:59:01.079Z,2.87
2018-01-17T11:01:28.588Z,3.10
2018-01-17T11:03:56.103Z,3.50
2018-01-17T11:06:23.617Z,3.27
2018-01-17T11:08:51.134Z,4.03
2018-01-17T11:11:19.404Z,3.53
2018-01-17T11:13:47.691Z,3.10
2018-01-17T11:16:15.220Z,3.30
2018-01-17T11:18:42.736Z,3.70
2018-01-17T11:21:10.384Z,3.00
2018-01-17T11:23:38.676Z,3.50
2018-01-17T11:26:06.193Z,2.80
2018-01-17T11:28:33.712Z,3.00
2018-01-17T11:31:01.214Z,3.43
2018-01-17T11:33:28.730Z,2.90
2018-01-17T11:35:56.239Z,2.70
2018-01-17T11:38:24.508Z,3.03
2018-01-17T11:40:52.027Z,3.30
2018-01-17T11:43:19.530Z,2.70
2018-01-17T11:45:47.104Z,3.17
2018-01-17T11:48:15.382Z,2.60
2018-01-17T11:50:43.691Z,3.13
2018-01-17T11:53:11.224Z,2.60
2018-01-17T11:55:39.512Z,2.77
2018-01-17T11:58:07.012Z,2.97
2018-01-17T12:00:34.530Z,2.67
2018-01-17T12:03:02.039Z,2.50
2018-01-17T12:05:29.559Z,3.30
2018-01-17T12:07:57.110Z,3.13
2018-01-17T12:10:24.632Z,2.90
2018-01-17T12:12:52.137Z,2.70
2018-01-17T12:15:19.676Z,2.73
2018-01-17T12:17:47.959Z,2.33
2018-01-17T12:20:16.231Z,2.83
2018-01-17T12:22:44.617Z,2.53
2018-01-17T12:25:12.891Z,3.10
2018-01-17T12:27:41.166Z,2.20
2018-01-17T12:30:09.447Z,3.10
2018-01-17T12:32:37.727Z,2.43
2018-01-17T12:35:06.009Z,2.57
2018-01-17T12:37:33.531Z,2.40
2018-01-17T12:40:01.047Z,2.13
2018-01-17T12:42:28.573Z,2.70
2018-01-17T12:44:56.840Z,2.50
2018-01-17T12:47:24.354Z,2.37
2018-01-17T12:49:51.855Z,2.23
2018-01-17T12:52:19.374Z,2.80
2018-01-17T12:54:46.875Z,2.70
2018-01-17T12:57:14.406Z,3.10
2018-01-17T12:59:41.921Z,2.40
2018-01-17T13:02:10.210Z,2.57
2018-01-17T13:04:37.727Z,2.73
2018-01-17T13:07:05.222Z,2.93
2018-01-17T13:09:32.743Z,2.33
2018-01-17T13:12:00.255Z,2.20
2018-01-17T13:14:27.781Z,2.67
2018-01-17T13:16:56.058Z,2.27
2018-01-17T13:19:24.358Z,1.97
2018-01-17T13:21:51.879Z,2.07
2018-01-17T13:24:19.406Z,1.90
2018-01-17T13:26:46.903Z,2.33
2018-01-17T13:29:14.426Z,2.00
2018-01-17T13:31:41.931Z,2.23
2018-01-17T13:34:10.230Z,2.00
2018-01-17T13:36:38.504Z,1.80
2018-01-17T13:39:06.793Z,1.90
2018-01-17T13:41:34.313Z,1.77
2018-01-17T13:44:01.812Z,2.10
2018-01-17T13:46:29.339Z,2.40
2018-01-17T13:48:56.847Z,2.17
2018-01-17T13:51:24.385Z,1.90
2018-01-17T13:53:51.915Z,2.23
2018-01-17T13:56:19.455Z,2.10
2018-01-17T13:58:46.967Z,2.27
2018-01-17T14:01:14.491Z,1.90
2018-01-17T14:03:42.013Z,2.10
2018-01-17T14:06:09.535Z,2.50
2018-01-17T14:08:37.816Z,2.03
2018-01-17T14:11:06.120Z,1.60
2018-01-17T14:13:33.623Z,2.13
2018-01-17T14:16:01.140Z,2.83
2018-01-17T14:18:28.643Z,2.63
2018-01-17T14:20:56.158Z,2.17
2018-01-17T14:23:23.839Z,2.80
2018-01-17T14:25:51.352Z,2.23
2018-01-17T14:28:19.634Z,1.97
2018-01-17T14:30:47.907Z,2.33
2018-01-17T14:33:16.196Z,2.10
2018-01-17T14:35:43.773Z,1.73
2018-01-17T14:38:11.304Z,1.90
2018-01-17T14:40:39.576Z,2.20
2018-01-17T14:43:13.415Z,1.80
2018-01-17T14:45:40.927Z,2.17
2018-01-17T14:48:08.454Z,1.67
2018-01-17T14:50:35.965Z,1.70
2018-01-17T14:53:03.498Z,1.90
2018-01-17T14:55:31.034Z,1.57
2018-01-17T14:57:58.569Z,1.97
2018-01-17T15:00:26.084Z,1.77
2018-01-17T15:02:53.608Z,1.93
2018-01-17T15:05:21.121Z,2.03
2018-01-17T15:07:49.411Z,1.97
2018-01-17T15:10:17.687Z,1.80
2018-01-17T15:12:45.967Z,2.10
2018-01-17T15:15:14.247Z,1.70
2018-01-17T15:17:41.767Z,1.70
2018-01-17T15:20:09.292Z,1.40
2018-01-17T15:22:36.799Z,1.63
2018-01-17T15:25:04.327Z,1.90
2018-01-17T15:27:31.849Z,1.77
2018-01-17T15:30:00.151Z,1.70
2018-01-17T15:32:27.651Z,1.50
2018-01-17T15:34:55.179Z,1.43
2018-01-17T15:37:22.695Z,1.97
2018-01-17T15:39:50.978Z,1.40
2018-01-17T15:42:18.475Z,1.60
2018-01-17T15:44:45.994Z,1.90
2018-01-17T15:47:14.279Z,2.20
2018-01-17T15:49:41.804Z,1.50
2018-01-17T15:52:09.335Z,1.50
2018-01-17T15:54:36.860Z,1.87
2018-01-17T15:57:04.374Z,1.50
2018-01-17T15:59:31.899Z,1.80
2018-01-17T16:01:59.421Z,1.57
2018-01-17T16:04:27.703Z,1.87
2018-01-17T16:06:55.985Z,2.10
2018-01-17T16:09:24.255Z,1.53
2018-01-17T16:11:52.535Z,1.60
2018-01-17T16:14:20.808Z,1.50
2018-01-17T16:16:49.098Z,2.33
2018-01-17T16:19:16.616Z,2.00
2018-01-17T16:21:44.173Z,2.20
2018-01-17T16:24:11.687Z,2.00
2018-01-17T16:26:39.215Z,2.87
2018-01-17T16:29:06.720Z,1.93
2018-01-17T16:31:34.235Z,1.83
2018-01-17T16:34:01.735Z,2.77
2018-01-17T16:36:29.248Z,2.00
2018-01-17T16:38:56.746Z,1.90
2018-01-17T16:41:24.262Z,2.07
2018-01-17T16:43:51.758Z,2.03
2018-01-17T16:46:19.255Z,1.80
2018-01-17T16:48:46.772Z,1.90
2018-01-17T16:51:15.051Z,2.10
2018-01-17T16:53:43.336Z,1.97
2018-01-17T16:56:10.839Z,1.87
2018-01-17T16:58:38.399Z,2.20
2018-01-17T17:01:05.906Z,1.63
2018-01-17T17:03:34.206Z,2.60
2018-01-17T17:06:01.721Z,2.00
2018-01-17T17:08:29.250Z,1.90
2018-01-17T17:10:56.772Z,2.63
2018-01-17T17:13:24.291Z,2.23
2018-01-17T17:15:51.790Z,2.23
2018-01-17T17:18:19.311Z,1.93
2018-01-17T17:20:46.821Z,2.13
2018-01-17T17:23:14.333Z,2.60
2018-01-17T17:25:41.855Z,1.87
2018-01-17T17:28:09.369Z,2.50
2018-01-17T17:30:37.655Z,2.30
2018-01-17T17:33:05.936Z,2.30
2018-01-17T17:35:33.465Z,2.47
2018-01-17T17:38:00.977Z,2.00
2018-01-17T17:40:28.496Z,2.90
2018-01-17T17:42:56.004Z,2.30
2018-01-17T17:45:23.544Z,2.20
2018-01-17T17:47:52.631Z,2.03
2018-01-17T17:50:20.923Z,2.07
2018-01-17T17:52:48.438Z,2.10
2018-01-17T17:55:15.955Z,1.90
2018-01-17T17:57:43.469Z,1.83
2018-01-17T18:00:11.006Z,2.07
2018-01-17T18:02:38.519Z,1.90
2018-01-17T18:05:06.045Z,2.30
2018-01-17T18:07:33.551Z,1.90
2018-01-17T18:10:01.081Z,2.00
2018-01-17T18:12:29.389Z,2.30
2018-01-17T18:14:56.911Z,2.93
2018-01-17T18:17:24.459Z,2.40
2018-01-17T18:19:51.959Z,2.40
2018-01-17T18:22:19.479Z,2.37
2018-01-17T18:24:46.988Z,2.07
2018-01-17T18:27:14.527Z,2.57
2018-01-17T18:29:42.794Z,2.60
2018-01-17T18:32:11.094Z,2.00
2018-01-17T18:34:38.606Z,2.40
2018-01-17T18:37:06.139Z,3.00
2018-01-17T18:39:33.643Z,2.27
2018-01-17T18:42:01.948Z,2.30
2018-01-17T18:44:29.473Z,2.40
2018-01-17T18:46:56.996Z,2.63
2018-01-17T18:49:24.487Z,2.40
2018-01-17T18:51:52.015Z,2.77
2018-01-17T18:54:19.528Z,2.87
2018-01-17T18:56:47.851Z,3.20
2018-01-17T18:59:15.343Z,3.17
2018-01-17T19:01:42.867Z,3.53
2018-01-17T19:04:10.367Z,3.33
2018-01-17T19:06:37.879Z,2.80
2018-01-17T19:09:05.411Z,3.83
2018-01-17T19:11:33.696Z,3.47
2018-01-17T19:14:01.215Z,3.40
2018-01-17T19:16:28.739Z,3.17
2018-01-17T19:18:56.280Z,3.50
2018-01-17T19:21:23.783Z,3.50
2018-01-17T19:23:51.312Z,3.80
2018-01-17T19:26:18.816Z,3.80
2018-01-17T19:28:46.345Z,3.50
2018-01-17T19:31:13.865Z,4.13
2018-01-17T19:33:42.164Z,3.90
2018-01-17T19:36:10.613Z,5.10
2018-01-17T19:38:38.899Z,3.70
2018-01-17T19:41:07.176Z,3.50
2018-01-17T19:43:35.447Z,2.70
2018-01-17T19:46:03.749Z,3.50
2018-01-17T19:48:31.255Z,3.10
2018-01-17T19:50:58.787Z,2.63
2018-01-17T19:53:26.296Z,3.03
2018-01-17T19:55:53.816Z,3.10
2018-01-17T19:58:21.333Z,3.17
2018-01-17T20:00:48.866Z,2.40
2018-01-17T20:03:16.367Z,3.30
2018-01-17T20:05:43.902Z,2.83
2018-01-17T20:08:12.179Z,2.70
2018-01-17T20:10:40.521Z,2.40
2018-01-17T20:13:08.024Z,2.57
2018-01-17T20:15:36.322Z,2.53
2018-01-17T20:18:03.841Z,2.50
2018-01-17T20:20:31.363Z,2.50
2018-01-17T20:23:08.424Z,2.53
2018-01-17T20:25:35.946Z,2.37
2018-01-17T20:28:03.461Z,2.10
2018-01-17T20:30:30.993Z,2.40
2018-01-17T20:32:59.274Z,2.77
2018-01-17T20:35:26.804Z,2.40
2018-01-17T20:37:54.328Z,2.73
2018-01-17T20:40:21.852Z,2.97
2018-01-17T20:42:50.176Z,2.60
2018-01-17T20:45:17.683Z,3.30
2018-01-17T20:47:45.217Z,2.47
2018-01-17T20:50:12.746Z,2.80
2018-01-17T20:52:40.268Z,3.00
2018-01-17T20:55:08.548Z,2.80
2018-01-17T20:57:36.076Z,3.53
2018-01-17T21:00:03.588Z,3.00
2018-01-17T21:02:31.125Z,2.70
2018-01-17T21:04:59.390Z,3.30
2018-01-17T21:07:27.680Z,2.90
2018-01-17T21:09:55.948Z,3.10
2018-01-17T21:12:23.476Z,3.57
2018-01-17T21:14:50.988Z,3.13
2018-01-17T21:17:18.564Z,2.83
2018-01-17T21:19:46.080Z,3.20
2018-01-17T21:22:14.372Z,2.90
2018-01-17T21:24:42.659Z,2.90
2018-01-17T21:27:10.201Z,2.77
2018-01-17T21:29:38.474Z,2.70
2018-01-17T21:32:06.753Z,2.83
2018-01-17T21:34:35.054Z,3.50
2018-01-17T21:37:02.563Z,3.40
2018-01-17T21:39:30.083Z,2.80
2018-01-17T21:41:57.701Z,3.00
2018-01-17T21:44:30.913Z,3.40
2018-01-17T21:46:59.187Z,2.77
2018-01-17T21:49:27.476Z,3.10
2018-01-17T21:51:55.755Z,2.90
2018-01-17T21:54:24.076Z,3.10
2018-01-17T21:56:52.347Z,3.20
2018-01-17T21:59:19.892Z,2.97
2018-01-17T22:01:47.409Z,3.27
2018-01-17T22:04:15.715Z,2.87
2018-01-17T22:06:43.436Z,2.43
2018-01-17T22:09:10.955Z,2.53
2018-01-17T22:11:38.459Z,2.80
2018-01-17T22:14:05.983Z,3.30
2018-01-17T22:16:33.483Z,2.63
2018-01-17T22:19:00.983Z,3.00
2018-01-17T22:21:28.503Z,2.67
2018-01-17T22:23:56.006Z,2.73
2018-01-17T22:26:24.359Z,2.47
2018-01-17T22:28:52.638Z,2.77
2018-01-17T22:31:20.922Z,2.50
2018-01-17T22:33:49.191Z,2.53
2018-01-17T22:36:27.512Z,2.40
2018-01-17T22:39:16.471Z,2.67
2018-01-17T22:41:44.763Z,2.10
2018-01-17T22:44:12.283Z,2.50
2018-01-17T22:46:39.809Z,2.37
2018-01-17T22:49:07.317Z,2.60
2018-01-17T22:51:35.631Z,2.90
2018-01-17T22:54:03.142Z,2.37
2018-01-17T22:56:30.652Z,1.93
2018-01-17T22:58:58.159Z,2.30
2018-01-17T23:01:25.666Z,1.90
2018-01-17T23:03:53.189Z,2.27
2018-01-17T23:06:20.718Z,2.17
2018-01-17T23:08:48.235Z,2.13
2018-01-17T23:11:15.736Z,2.13
2018-01-17T23:13:44.044Z,2.13
2018-01-17T23:16:11.547Z,2.00
2018-01-17T23:18:39.075Z,1.80
2018-01-17T23:21:07.360Z,2.00
2018-01-17T23:23:35.684Z,1.57
2018-01-17T23:26:03.197Z,1.63
2018-01-17T23:28:31.483Z,1.60
2018-01-17T23:30:58.978Z,1.73
2018-01-17T23:33:26.504Z,1.97
2018-01-17T23:35:54.017Z,1.70
2018-01-17T23:38:21.514Z,1.50
2018-01-17T23:40:49.039Z,1.47
2018-01-17T23:43:16.553Z,1.67
2018-01-17T23:45:44.084Z,1.60
2018-01-17T23:48:12.373Z,1.70
2018-01-17T23:50:39.891Z,1.60
2018-01-17T23:53:07.390Z,1.63
2018-01-17T23:55:34.938Z,1.43
2018-01-17T23:58:03.207Z,1.70
